Alaior, Spain
Current Conditions -  °F | °C
As of 6:30 PM on Thursday 30 Oct 2014 (Local Time) from LEMH Reporting Station
Few Clouds Few Clouds  
Wind Chill: 64°   Ceiling: Unl
Heat Index: 64°   Visibility: 6mi
Dew Point: 59°   Wind: 2mph
Humidity: 83%   Direction: NA
Pressure: 30.21"   Gusts: NA
Location:  39.93°N, 4.14°E
Report Text: LEMH 301730Z VRB02KT 9999 FEW025 18/15 Q1023
Loading
Personal Weather Stations






























Interactive Weather Map
Tropical Storm Tracking
New forecast layout! Learn more

10-Day Weather Forecast

Advertisements
Track Severe Weather on mobile